createdAt,value
2022-11-05T00:00:20.690Z,7.70
2022-11-05T00:03:41.254Z,7.63
2022-11-05T00:07:01.687Z,7.70
2022-11-05T00:10:14.126Z,7.60
2022-11-05T00:13:35.386Z,7.43
2022-11-05T00:16:46.219Z,6.73
2022-11-05T00:19:47.855Z,7.17
2022-11-05T00:23:08.373Z,7.87
2022-11-05T00:26:11.854Z,7.47
2022-11-05T00:29:13.480Z,7.23
2022-11-05T00:32:15.098Z,7.13
2022-11-05T00:35:18.993Z,7.27
2022-11-05T00:38:20.718Z,6.77
2022-11-05T00:41:22.432Z,7.20
2022-11-05T00:44:45.598Z,7.30
2022-11-05T00:48:07.837Z,7.27
2022-11-05T00:51:09.651Z,7.03
2022-11-05T00:54:11.338Z,7.87
2022-11-05T00:57:12.966Z,8.03
2022-11-05T01:00:15.131Z,8.40
2022-11-05T01:03:20.610Z,7.73
2022-11-05T01:06:22.408Z,7.97
2022-11-05T01:09:27.054Z,8.30
2022-11-05T01:12:28.931Z,7.97
2022-11-05T01:15:32.882Z,8.43
2022-11-05T01:18:36.078Z,8.37
2022-11-05T01:21:39.454Z,8.17
2022-11-05T01:24:41.139Z,8.50
2022-11-05T01:27:42.801Z,9.03
2022-11-05T01:30:44.402Z,8.33
2022-11-05T01:33:46.033Z,8.90
2022-11-05T01:36:47.624Z,9.10
2022-11-05T01:39:49.266Z,8.30
2022-11-05T01:42:50.965Z,8.77
2022-11-05T01:45:56.543Z,9.00
2022-11-05T01:49:23.529Z,9.93
2022-11-05T01:52:27.004Z,10.57
2022-11-05T01:55:33.618Z,10.17
2022-11-05T01:58:42.395Z,11.03
2022-11-05T02:01:45.072Z,10.73
2022-11-05T02:04:54.245Z,10.33
2022-11-05T02:07:56.126Z,11.37
2022-11-05T02:10:58.490Z,11.17
2022-11-05T02:14:00.358Z,11.07
2022-11-05T02:17:33.107Z,11.60
2022-11-05T02:20:51.802Z,10.73
2022-11-05T02:24:08.034Z,11.63
2022-11-05T02:27:48.081Z,11.80
2022-11-05T02:30:56.231Z,11.73
2022-11-05T02:33:57.839Z,11.17
2022-11-05T02:37:16.939Z,11.73
2022-11-05T02:40:28.911Z,12.17
2022-11-05T02:43:50.283Z,11.87
2022-11-05T02:47:16.987Z,12.87
2022-11-05T02:50:35.041Z,11.90
2022-11-05T02:53:47.727Z,12.73
2022-11-05T02:56:53.185Z,13.90
2022-11-05T03:00:08.577Z,14.13
2022-11-05T03:03:14.785Z,13.23
2022-11-05T03:06:47.634Z,14.40
2022-11-05T03:10:05.773Z,14.17
2022-11-05T03:13:30.451Z,13.37
2022-11-05T03:16:40.245Z,14.40
2022-11-05T03:20:08.556Z,13.67
2022-11-05T03:23:25.581Z,14.00
2022-11-05T03:26:59.547Z,14.33
2022-11-05T03:30:05.282Z,14.03
2022-11-05T03:33:24.644Z,14.47
2022-11-05T03:36:39.497Z,14.20
2022-11-05T03:39:54.125Z,14.70
2022-11-05T03:42:58.255Z,13.90
2022-11-05T03:46:04.790Z,14.70
2022-11-05T03:49:09.532Z,14.80
2022-11-05T03:52:13.119Z,13.93
2022-11-05T03:55:15.391Z,13.80
2022-11-05T03:58:18.716Z,14.20
2022-11-05T04:01:20.412Z,13.50
2022-11-05T04:04:22.457Z,14.67
2022-11-05T04:07:43.499Z,13.93
2022-11-05T04:11:05.350Z,13.20
2022-11-05T04:14:06.987Z,12.93
2022-11-05T04:17:09.581Z,14.10
2022-11-05T04:20:30.478Z,14.20
2022-11-05T04:23:51.006Z,14.37
2022-11-05T04:26:52.671Z,14.57
2022-11-05T04:30:12.634Z,13.97
2022-11-05T04:33:16.376Z,14.53
2022-11-05T04:36:21.134Z,15.50
2022-11-05T04:39:22.763Z,14.47
2022-11-05T04:42:24.398Z,15.10
2022-11-05T04:45:28.692Z,16.27
2022-11-05T04:48:30.296Z,14.60
2022-11-05T04:51:31.913Z,16.03
2022-11-05T04:54:33.621Z,15.67
2022-11-05T04:57:35.543Z,15.23
2022-11-05T05:00:37.205Z,16.50
2022-11-05T05:03:39.002Z,15.67
2022-11-05T05:06:40.648Z,15.73
2022-11-05T05:09:42.227Z,16.53
2022-11-05T05:12:43.914Z,14.40
2022-11-05T05:15:45.843Z,16.40
2022-11-05T05:18:48.585Z,16.30
2022-11-05T05:21:50.255Z,16.73
2022-11-05T05:24:53.086Z,16.63
2022-11-05T05:27:58.071Z,15.07
2022-11-05T05:31:00.757Z,15.77
2022-11-05T05:34:03.419Z,15.87
2022-11-05T05:37:05.042Z,15.27
2022-11-05T05:40:07.778Z,14.73
2022-11-05T05:43:09.649Z,14.63
2022-11-05T05:46:14.346Z,16.03
2022-11-05T05:49:16.003Z,15.50
2022-11-05T05:52:17.700Z,16.60
2022-11-05T05:55:19.325Z,16.03
2022-11-05T05:58:21.552Z,13.73
2022-11-05T06:01:25.351Z,14.47
2022-11-05T06:04:27.559Z,14.30
2022-11-05T06:07:33.137Z,14.60
2022-11-05T06:10:38.656Z,13.50
2022-11-05T06:13:40.438Z,13.37
2022-11-05T06:16:42.057Z,13.90
2022-11-05T06:19:43.952Z,13.00
2022-11-05T06:22:57.705Z,13.00
2022-11-05T06:26:04.406Z,12.70
2022-11-05T06:29:06.042Z,12.07
2022-11-05T06:32:09.604Z,12.20
2022-11-05T06:35:12.090Z,12.50
2022-11-05T06:38:20.265Z,13.27
2022-11-05T06:41:21.924Z,12.63
2022-11-05T06:44:23.528Z,14.37
2022-11-05T06:47:25.287Z,12.63
2022-11-05T06:50:28.204Z,12.33
2022-11-05T06:53:30.501Z,12.90
2022-11-05T06:56:32.152Z,12.87
2022-11-05T06:59:34.467Z,12.93
2022-11-05T07:02:39.074Z,13.73
2022-11-05T07:05:47.082Z,13.23
2022-11-05T07:08:48.733Z,12.90
2022-11-05T07:11:50.339Z,13.23
2022-11-05T07:14:51.926Z,13.37
2022-11-05T07:18:00.618Z,12.70
2022-11-05T07:21:05.533Z,14.43
2022-11-05T07:24:07.684Z,12.83
2022-11-05T07:27:09.363Z,12.60
2022-11-05T07:30:12.485Z,13.00
2022-11-05T07:33:14.619Z,13.00
2022-11-05T07:36:16.328Z,12.37
2022-11-05T07:39:17.949Z,12.67
2022-11-05T07:42:19.613Z,12.97
2022-11-05T07:45:22.019Z,11.97
2022-11-05T07:48:23.703Z,11.83
2022-11-05T07:51:25.420Z,11.57
2022-11-05T07:54:27.086Z,11.40
2022-11-05T07:57:28.743Z,11.80
2022-11-05T08:00:30.482Z,10.87
2022-11-05T08:03:37.199Z,11.63
2022-11-05T08:06:38.919Z,10.97
2022-11-05T08:09:40.513Z,11.20
2022-11-05T08:12:42.151Z,10.60
2022-11-05T08:15:43.994Z,11.10
2022-11-05T08:18:45.734Z,11.03
2022-11-05T08:21:47.315Z,11.30
2022-11-05T08:24:48.949Z,11.47
2022-11-05T08:28:05.606Z,11.97
2022-11-05T08:31:07.193Z,10.97
2022-11-05T08:34:08.814Z,11.87
2022-11-05T08:37:10.405Z,12.63
2022-11-05T08:40:12.324Z,11.80
2022-11-05T08:43:14.785Z,10.87
2022-11-05T08:46:16.590Z,10.30
2022-11-05T08:49:18.219Z,10.43
2022-11-05T08:52:19.838Z,11.00
2022-11-05T08:55:21.515Z,10.33
2022-11-05T08:58:23.202Z,9.03
2022-11-05T09:01:24.939Z,9.90
2022-11-05T09:04:26.661Z,9.63
2022-11-05T09:07:28.255Z,8.40
2022-11-05T09:10:29.912Z,8.83
2022-11-05T09:13:31.560Z,8.23
2022-11-05T09:16:34.334Z,9.13
2022-11-05T09:19:39.854Z,8.80
2022-11-05T09:22:43.394Z,8.87
2022-11-05T09:25:45.861Z,8.40
2022-11-05T09:28:47.600Z,9.97
2022-11-05T09:31:49.378Z,7.83
2022-11-05T09:34:51.092Z,7.03
2022-11-05T09:37:56.832Z,7.50
2022-11-05T09:41:13.447Z,7.47
2022-11-05T09:44:49.063Z,6.70
2022-11-05T09:48:09.982Z,6.40
2022-11-05T09:51:16.828Z,6.63
2022-11-05T09:54:27.405Z,13.10
2022-11-05T09:57:35.589Z,7.97
2022-11-05T10:00:37.552Z,4.80
2022-11-05T10:03:47.423Z,4.53
2022-11-05T10:06:55.222Z,4.40
2022-11-05T10:10:04.182Z,4.77
2022-11-05T10:13:33.288Z,4.13
2022-11-05T10:16:39.417Z,3.90
2022-11-05T10:19:55.937Z,3.83
2022-11-05T10:23:02.327Z,5.53
2022-11-05T10:26:09.066Z,4.20
2022-11-05T10:29:13.673Z,5.43
2022-11-05T10:32:27.720Z,3.80
2022-11-05T10:35:33.004Z,3.10
2022-11-05T10:38:34.749Z,4.47
2022-11-05T10:41:46.483Z,3.20
2022-11-05T10:45:31.690Z,2.87
2022-11-05T10:49:11.114Z,2.90
2022-11-05T10:52:24.484Z,2.87
2022-11-05T10:55:30.028Z,2.70
2022-11-05T10:58:35.198Z,2.73
2022-11-05T11:01:37.053Z,2.97
2022-11-05T11:04:41.757Z,3.17
2022-11-05T11:07:43.676Z,2.73
2022-11-05T11:10:53.244Z,2.90
2022-11-05T11:13:57.848Z,2.57
2022-11-05T11:17:17.936Z,4.10
2022-11-05T11:20:31.877Z,2.80
2022-11-05T11:23:38.264Z,2.90
2022-11-05T11:26:40.878Z,2.90
2022-11-05T11:29:49.643Z,5.13
2022-11-05T11:32:54.194Z,5.67
2022-11-05T11:35:56.122Z,3.73
2022-11-05T11:39:12.970Z,2.97
2022-11-05T11:42:28.057Z,2.90
2022-11-05T11:45:46.791Z,3.23
2022-11-05T11:48:49.847Z,3.27
2022-11-05T11:51:59.532Z,3.27
2022-11-05T11:55:20.110Z,2.97
2022-11-05T11:58:37.143Z,3.17
2022-11-05T12:01:57.523Z,3.00
2022-11-05T12:05:33.906Z,3.10
2022-11-05T12:09:13.197Z,2.50
2022-11-05T12:12:17.653Z,2.60
2022-11-05T12:15:37.870Z,2.63
2022-11-05T12:19:01.468Z,2.70
2022-11-05T12:22:12.339Z,1.70
2022-11-05T12:25:42.355Z,2.50
2022-11-05T12:29:16.851Z,3.37
2022-11-05T12:32:54.232Z,1.70
2022-11-05T12:36:48.059Z,2.30
2022-11-05T12:40:01.365Z,2.57
2022-11-05T12:43:21.223Z,2.70
2022-11-05T12:46:42.394Z,2.43
2022-11-05T12:50:02.539Z,2.90
2022-11-05T12:53:22.303Z,6.80
2022-11-05T12:56:37.116Z,3.17
2022-11-05T12:59:46.034Z,3.10
2022-11-05T13:02:50.836Z,5.93
2022-11-05T13:06:06.225Z,2.80
2022-11-05T13:09:20.918Z,2.73
2022-11-05T13:12:27.543Z,2.13
2022-11-05T13:15:41.441Z,2.50
2022-11-05T13:18:48.037Z,2.17
2022-11-05T13:22:02.835Z,1.83
2022-11-05T13:25:10.522Z,2.40
2022-11-05T13:28:29.367Z,2.00
2022-11-05T13:31:38.837Z,1.97
2022-11-05T13:34:40.511Z,1.90
2022-11-05T13:38:04.815Z,2.60
2022-11-05T13:41:20.313Z,1.80
2022-11-05T13:44:27.650Z,1.90
2022-11-05T13:47:59.193Z,1.63
2022-11-05T13:51:37.659Z,2.20
2022-11-05T13:55:01.697Z,4.37
2022-11-05T13:58:27.642Z,2.03
2022-11-05T14:01:55.691Z,2.10
2022-11-05T14:05:02.134Z,2.00
2022-11-05T14:08:27.577Z,2.67
2022-11-05T14:11:40.285Z,2.70
2022-11-05T14:14:52.213Z,2.30
2022-11-05T14:18:26.715Z,2.03
2022-11-05T14:21:30.379Z,1.70
2022-11-05T14:24:38.370Z,1.60
2022-11-05T14:27:39.938Z,2.10
2022-11-05T14:30:46.438Z,2.63
2022-11-05T14:34:40.267Z,2.13
2022-11-05T14:37:58.795Z,1.80
2022-11-05T14:41:11.950Z,2.10
2022-11-05T14:44:13.585Z,2.63
2022-11-05T14:47:21.571Z,2.20
2022-11-05T14:50:35.776Z,1.90
2022-11-05T14:53:39.689Z,1.80
2022-11-05T14:56:56.305Z,5.60
2022-11-05T15:00:00.790Z,1.90
2022-11-05T15:03:25.993Z,2.43
2022-11-05T15:06:31.149Z,2.37
2022-11-05T15:09:49.398Z,2.43
2022-11-05T15:12:59.120Z,2.40
2022-11-05T15:16:03.067Z,2.40
2022-11-05T15:19:10.107Z,2.10
2022-11-05T15:22:32.122Z,2.50
2022-11-05T15:25:45.833Z,2.30
2022-11-05T15:28:52.546Z,2.37
2022-11-05T15:31:54.183Z,6.23
2022-11-05T15:34:56.304Z,3.93
2022-11-05T15:38:02.072Z,3.40
2022-11-05T15:41:16.895Z,4.00
2022-11-05T15:44:46.020Z,4.50
2022-11-05T15:47:47.614Z,6.40
2022-11-05T15:50:49.722Z,4.53
2022-11-05T15:57:29.410Z,2.80
2022-11-05T16:00:36.379Z,3.70
2022-11-05T16:03:39.351Z,3.20
2022-11-05T16:06:47.086Z,4.30
2022-11-05T16:10:12.511Z,3.60
2022-11-05T16:13:41.287Z,4.20
2022-11-05T16:16:49.097Z,3.90
2022-11-05T16:19:53.719Z,4.70
2022-11-05T16:23:01.414Z,5.90
2022-11-05T16:26:03.133Z,4.70
2022-11-05T16:29:12.946Z,4.70
2022-11-05T16:32:19.383Z,5.43
2022-11-05T16:35:23.933Z,5.20
2022-11-05T16:38:25.706Z,4.50
2022-11-05T16:41:28.113Z,5.17
2022-11-05T16:44:30.095Z,4.83
2022-11-05T16:47:34.944Z,5.37
2022-11-05T16:50:37.565Z,5.60
2022-11-05T16:53:39.221Z,5.37
2022-11-05T16:56:42.737Z,4.13
2022-11-05T16:59:45.860Z,4.00
2022-11-05T17:02:48.297Z,4.23
2022-11-05T17:05:50.020Z,3.27
2022-11-05T17:08:51.784Z,3.47
2022-11-05T17:11:53.445Z,3.80
2022-11-05T17:14:55.275Z,3.43
2022-11-05T17:17:58.293Z,2.93
2022-11-05T17:20:59.896Z,2.63
2022-11-05T17:24:01.542Z,3.00
2022-11-05T17:27:03.273Z,2.77
2022-11-05T17:30:05.504Z,6.27
2022-11-05T17:33:07.213Z,4.83
2022-11-05T17:36:13.099Z,3.33
2022-11-05T17:39:14.720Z,3.87
2022-11-05T17:42:16.359Z,4.20
2022-11-05T17:45:18.393Z,3.90
2022-11-05T17:48:25.607Z,3.60
2022-11-05T17:51:27.204Z,3.33
2022-11-05T17:54:28.806Z,3.03
2022-11-05T17:57:30.481Z,3.67
2022-11-05T18:00:33.969Z,2.80
2022-11-05T18:03:35.688Z,3.53
2022-11-05T18:06:41.595Z,3.17
2022-11-05T18:09:43.290Z,3.17
2022-11-05T18:12:45.437Z,6.53
2022-11-05T18:15:47.240Z,4.40
2022-11-05T18:18:49.199Z,4.10
2022-11-05T18:21:50.852Z,3.77
2022-11-05T18:24:53.901Z,3.23
2022-11-05T18:27:55.939Z,3.50
2022-11-05T18:30:57.501Z,3.23
2022-11-05T18:34:05.311Z,3.70
2022-11-05T18:37:06.908Z,3.73
2022-11-05T18:40:09.608Z,3.97
2022-11-05T18:43:12.406Z,3.70
2022-11-05T18:46:35.950Z,3.80
2022-11-05T18:49:36.283Z,3.70
2022-11-05T18:52:37.905Z,3.37
2022-11-05T18:55:40.336Z,3.67
2022-11-05T18:58:42.631Z,3.47
2022-11-05T19:01:44.899Z,4.03
2022-11-05T19:05:13.934Z,3.90
2022-11-05T19:08:12.411Z,4.13
2022-11-05T19:11:19.833Z,5.10
2022-11-05T19:14:21.465Z,4.23
2022-11-05T19:17:23.088Z,4.30
2022-11-05T19:20:25.071Z,4.13
2022-11-05T19:23:39.429Z,4.07
2022-11-05T19:26:41.472Z,4.20
2022-11-05T19:29:43.069Z,4.47
2022-11-05T19:32:44.745Z,3.60
2022-11-05T19:35:46.350Z,4.47
2022-11-05T19:38:49.604Z,4.10
2022-11-05T19:41:51.224Z,4.17
2022-11-05T19:44:54.329Z,3.90
2022-11-05T19:47:55.951Z,3.73
2022-11-05T19:50:57.627Z,4.13
2022-11-05T19:54:01.396Z,3.67
2022-11-05T19:57:03.108Z,3.60
2022-11-05T20:00:08.423Z,3.87
2022-11-05T20:03:12.166Z,3.90
2022-11-05T20:06:28.594Z,4.00
2022-11-05T20:09:30.235Z,3.70
2022-11-05T20:12:33.934Z,3.30
2022-11-05T20:15:39.483Z,3.80
2022-11-05T20:18:41.053Z,3.57
2022-11-05T20:21:42.893Z,3.83
2022-11-05T20:24:44.506Z,3.67
2022-11-05T20:27:46.173Z,3.80
2022-11-05T20:30:47.763Z,3.70
2022-11-05T20:33:49.511Z,4.03
2022-11-05T20:36:51.243Z,3.70
2022-11-05T20:39:53.130Z,4.17
2022-11-05T20:42:57.936Z,4.07
2022-11-05T20:45:59.526Z,4.00
2022-11-05T20:49:01.145Z,4.43
2022-11-05T20:52:02.767Z,3.83
2022-11-05T20:55:05.155Z,3.83
2022-11-05T20:58:06.758Z,4.00
2022-11-05T21:01:12.154Z,3.60
2022-11-05T21:04:13.818Z,3.10
2022-11-05T21:07:26.685Z,3.77
2022-11-05T21:10:28.311Z,3.57
2022-11-05T21:13:30.770Z,3.17
2022-11-05T21:16:32.577Z,3.20
2022-11-05T21:19:35.624Z,3.00
2022-11-05T21:22:37.229Z,3.77
2022-11-05T21:25:42.658Z,3.20
2022-11-05T21:28:44.297Z,3.20
2022-11-05T21:31:49.150Z,2.90
2022-11-05T21:34:50.741Z,3.37
2022-11-05T21:37:52.438Z,3.27
2022-11-05T21:41:16.120Z,4.50
2022-11-05T21:44:17.846Z,3.00
2022-11-05T21:47:19.472Z,3.17
2022-11-05T21:50:41.279Z,2.87
2022-11-05T21:54:03.019Z,3.27
2022-11-05T21:57:23.342Z,3.40
2022-11-05T22:00:25.121Z,3.27
2022-11-05T22:03:27.086Z,3.60
2022-11-05T22:06:28.662Z,3.63
2022-11-05T22:09:30.472Z,3.47
2022-11-05T22:12:32.521Z,4.07
2022-11-05T22:15:34.146Z,3.40
2022-11-05T22:18:35.732Z,3.07
2022-11-05T22:21:37.317Z,3.10
2022-11-05T22:24:39.826Z,3.27
2022-11-05T22:27:43.570Z,3.50
2022-11-05T22:30:45.171Z,3.47
2022-11-05T22:33:47.434Z,3.23
2022-11-05T22:36:49.275Z,4.00
2022-11-05T22:39:51.729Z,3.30
2022-11-05T22:42:53.347Z,3.33
2022-11-05T22:46:15.971Z,3.83
2022-11-05T22:49:18.162Z,3.60
2022-11-05T22:52:22.138Z,4.20
2022-11-05T22:55:23.891Z,4.37
2022-11-05T22:58:25.627Z,4.20
2022-11-05T23:01:36.817Z,3.97
2022-11-05T23:04:38.726Z,4.03
2022-11-05T23:07:58.887Z,4.20
2022-11-05T23:11:19.138Z,4.37
2022-11-05T23:14:20.949Z,4.40
2022-11-05T23:17:41.632Z,4.40
2022-11-05T23:21:01.870Z,4.60
2022-11-05T23:24:06.594Z,4.63
2022-11-05T23:27:08.621Z,4.50
2022-11-05T23:30:18.509Z,4.77
2022-11-05T23:33:20.090Z,5.40
2022-11-05T23:36:40.239Z,4.93
2022-11-05T23:39:42.984Z,5.07
2022-11-05T23:43:04.101Z,5.37
2022-11-05T23:46:24.756Z,5.60
2022-11-05T23:49:26.643Z,5.33
2022-11-05T23:52:28.299Z,5.67
2022-11-05T23:55:30.531Z,5.87
2022-11-05T23:58:32.489Z,5.30
